Time;durP1;ratioP1;P1;durP2;ratioP2;P2;SDS_P1;SDS_P2;PMS_P1;PMS_P2;Temp;Humidity;BMP_temperature;BMP_pressure;BME280_temperature;BME280_humidity;BME280_pressure;Samples;Min_cycle;Max_cycle;Signal;HPM_P1;HPM_P2
2022/03/06 00:00:49;;;;;;;;;0.50;0.00;14.20;99.90;;;;;;5050274;28;11163;-56
2022/03/06 00:03:19;;;;;;;;;0.00;0.00;14.20;99.90;;;;;;5053573;28;10881;-53
2022/03/06 00:05:53;;;;;;;;;0.00;0.00;14.20;99.90;;;;;;5064746;28;10854;-55
2022/03/06 00:08:24;;;;;;;;;0.00;0.00;14.30;99.90;;;;;;5051137;28;11306;-56
2022/03/06 00:10:57;;;;;;;;;0.00;0.00;14.30;99.90;;;;;;5054567;28;10948;-56
2022/03/06 00:13:27;;;;;;;;;0.00;0.00;14.30;99.90;;;;;;5047632;28;10920;-56
2022/03/06 00:16:02;;;;;;;;;0.00;0.00;14.30;99.90;;;;;;5057260;28;10849;-56
2022/03/06 00:18:32;;;;;;;;;0.00;0.00;14.30;99.90;;;;;;5046058;28;10811;-54
2022/03/06 00:21:03;;;;;;;;;0.00;0.00;14.20;99.90;;;;;;5055271;28;10902;-56
2022/03/06 00:23:35;;;;;;;;;0.00;0.00;14.30;99.90;;;;;;5052181;28;11728;-57
2022/03/06 00:26:09;;;;;;;;;0.00;0.00;14.30;99.90;;;;;;5059429;28;10871;-55
2022/03/06 00:28:40;;;;;;;;;0.00;0.00;14.20;99.90;;;;;;5056950;28;10870;-57
2022/03/06 00:31:10;;;;;;;;;0.00;0.00;14.20;99.90;;;;;;5051473;28;10962;-56
2022/03/06 00:33:41;;;;;;;;;0.00;0.00;14.20;99.90;;;;;;5049466;28;11528;-56
2022/03/06 00:36:14;;;;;;;;;0.00;0.00;14.20;99.90;;;;;;5049008;28;11747;-55
2022/03/06 00:38:48;;;;;;;;;0.00;0.00;14.20;99.90;;;;;;5053449;28;11718;-56
2022/03/06 00:41:19;;;;;;;;;0.00;0.00;14.10;99.90;;;;;;5054617;28;11802;-56
2022/03/06 00:43:49;;;;;;;;;0.00;0.00;14.10;99.90;;;;;;5048085;28;11078;-56
2022/03/06 00:46:20;;;;;;;;;0.50;0.50;14.10;99.90;;;;;;5048867;28;11032;-56
2022/03/06 00:48:52;;;;;;;;;0.00;0.00;14.10;99.90;;;;;;5050579;28;11468;-53
2022/03/06 00:51:23;;;;;;;;;0.00;0.00;14.10;99.90;;;;;;5056027;28;10974;-54
2022/03/06 00:53:53;;;;;;;;;0.00;0.00;14.00;99.90;;;;;;5053224;28;11107;-56
2022/03/06 00:56:24;;;;;;;;;0.75;0.75;14.00;99.90;;;;;;5054850;28;11126;-57
2022/03/06 00:58:56;;;;;;;;;0.00;0.00;14.00;99.90;;;;;;5050102;28;11111;-56
2022/03/06 01:01:28;;;;;;;;;2.00;0.00;13.90;99.90;;;;;;5045814;28;11031;-55
2022/03/06 01:04:01;;;;;;;;;0.00;0.00;13.90;99.90;;;;;;5055202;28;11127;-55
2022/03/06 01:06:32;;;;;;;;;0.50;0.25;13.90;99.90;;;;;;5052009;28;11203;-56
2022/03/06 01:09:05;;;;;;;;;0.00;0.00;14.00;99.90;;;;;;5046067;28;11427;-55
2022/03/06 01:11:36;;;;;;;;;0.75;0.75;13.90;99.90;;;;;;5047010;28;11490;-55
2022/03/06 01:14:06;;;;;;;;;2.00;0.00;13.80;99.90;;;;;;5053067;28;11262;-55
2022/03/06 01:16:37;;;;;;;;;1.00;1.00;13.80;99.90;;;;;;5047414;28;11474;-57
2022/03/06 01:19:08;;;;;;;;;1.50;1.50;13.80;99.90;;;;;;5056582;28;11448;-56
2022/03/06 01:21:40;;;;;;;;;0.00;0.00;13.80;99.90;;;;;;5050634;28;11579;-56
2022/03/06 01:24:12;;;;;;;;;1.00;0.00;13.90;99.90;;;;;;5054904;28;11441;-55
2022/03/06 01:26:43;;;;;;;;;2.00;0.25;13.80;99.90;;;;;;5048106;28;11425;-54
2022/03/06 01:29:13;;;;;;;;;1.00;1.00;13.80;99.90;;;;;;5056862;28;11412;-56
2022/03/06 01:31:45;;;;;;;;;0.00;0.00;13.80;99.90;;;;;;5049626;28;11426;-56
2022/03/06 01:34:16;;;;;;;;;0.75;0.75;13.70;99.90;;;;;;5044450;28;11481;-54
2022/03/06 01:36:47;;;;;;;;;1.00;1.00;13.70;99.90;;;;;;5046822;28;11425;-53
2022/03/06 01:39:18;;;;;;;;;1.00;1.00;13.70;99.90;;;;;;5052093;28;11488;-56
2022/03/06 01:41:50;;;;;;;;;2.25;2.25;13.70;99.90;;;;;;5048393;28;11488;-58
2022/03/06 01:44:22;;;;;;;;;1.00;1.00;13.70;99.90;;;;;;5047775;28;12717;-58
2022/03/06 01:46:54;;;;;;;;;1.50;1.50;13.60;99.90;;;;;;5046338;28;11434;-57
2022/03/06 01:49:25;;;;;;;;;2.00;2.00;13.60;99.90;;;;;;5045777;28;11498;-57
2022/03/06 01:51:59;;;;;;;;;2.75;1.00;13.60;99.90;;;;;;5044759;28;11486;-57
2022/03/06 01:54:30;;;;;;;;;1.00;1.00;13.60;99.90;;;;;;5044892;28;11440;-58
2022/03/06 01:57:04;;;;;;;;;2.00;2.00;13.60;99.90;;;;;;5050597;28;11488;-57
2022/03/06 01:59:38;;;;;;;;;1.00;1.00;13.50;99.90;;;;;;5045320;28;11428;-57
2022/03/06 02:02:10;;;;;;;;;1.00;1.00;13.50;99.90;;;;;;5047926;28;11579;-54
2022/03/06 02:04:41;;;;;;;;;2.00;2.00;13.50;99.90;;;;;;5047288;28;11442;-56
2022/03/06 02:07:12;;;;;;;;;1.00;1.00;13.50;99.90;;;;;;5044627;28;11455;-56
2022/03/06 02:09:42;;;;;;;;;1.75;1.75;13.40;99.90;;;;;;5044398;28;11467;-56
2022/03/06 02:12:24;;;;;;;;;2.25;1.50;13.50;99.90;;;;;;5040729;28;11309;-55
2022/03/06 02:14:56;;;;;;;;;0.00;0.00;13.50;99.90;;;;;;5046609;28;11494;-55
2022/03/06 02:17:28;;;;;;;;;2.00;2.00;13.40;99.90;;;;;;5054158;28;11428;-56
2022/03/06 02:20:05;;;;;;;;;2.00;2.00;13.40;99.90;;;;;;5054159;28;11430;-56
2022/03/06 02:22:46;;;;;;;;;3.00;1.75;13.40;99.90;;;;;;5053336;28;11450;-56
2022/03/06 02:25:28;;;;;;;;;2.00;2.00;13.40;99.90;;;;;;5048302;28;11455;-55
2022/03/06 02:28:07;;;;;;;;;1.00;1.00;13.40;99.90;;;;;;5053953;28;11438;-55
2022/03/06 02:30:44;;;;;;;;;1.25;1.25;13.40;99.90;;;;;;5056881;28;11427;-54
2022/03/06 02:33:18;;;;;;;;;1.50;1.50;13.40;99.90;;;;;;5056296;28;12185;-56
2022/03/06 02:35:50;;;;;;;;;2.75;2.75;13.40;99.90;;;;;;5050293;28;11483;-57
2022/03/06 02:38:21;;;;;;;;;1.75;1.75;13.40;99.90;;;;;;5057167;28;12274;-56
2022/03/06 02:40:53;;;;;;;;;2.25;2.25;13.30;99.90;;;;;;5059425;28;11601;-55
2022/03/06 02:43:23;;;;;;;;;2.50;2.50;13.20;99.90;;;;;;5056854;28;11436;-56
2022/03/06 02:45:53;;;;;;;;;2.50;2.00;13.20;99.90;;;;;;5052413;28;11480;-54
2022/03/06 02:48:24;;;;;;;;;2.75;2.00;13.30;99.90;;;;;;5055298;28;11428;-56
2022/03/06 02:50:55;;;;;;;;;1.00;1.00;13.30;99.90;;;;;;5052831;28;11461;-56
2022/03/06 02:53:26;;;;;;;;;2.25;1.00;13.30;99.90;;;;;;5059704;28;11480;-55
2022/03/06 02:55:58;;;;;;;;;2.00;2.00;13.30;99.90;;;;;;5054059;28;11475;-55
2022/03/06 02:58:29;;;;;;;;;3.00;3.00;13.30;99.90;;;;;;5051633;28;11493;-54
2022/03/06 03:01:08;;;;;;;;;3.00;3.00;13.30;99.90;;;;;;5052394;28;11970;-55
2022/03/06 03:03:44;;;;;;;;;2.00;2.00;13.30;99.90;;;;;;5056886;28;11431;-55
2022/03/06 03:06:14;;;;;;;;;4.50;4.50;13.30;99.90;;;;;;5042507;28;11518;-53
2022/03/06 03:08:48;;;;;;;;;2.00;2.00;13.30;99.90;;;;;;5043031;28;11488;-54
2022/03/06 03:11:19;;;;;;;;;3.00;3.00;13.30;99.90;;;;;;5046772;28;11510;-55
2022/03/06 03:13:52;;;;;;;;;3.00;3.00;13.30;99.90;;;;;;5047067;28;11501;-57
2022/03/06 03:16:23;;;;;;;;;1.00;1.00;13.20;99.90;;;;;;5048959;28;11460;-57
2022/03/06 03:18:57;;;;;;;;;4.25;1.75;13.20;99.90;;;;;;5050868;28;11438;-57
2022/03/06 03:21:31;;;;;;;;;2.50;2.50;13.20;99.90;;;;;;5050901;28;11459;-56
2022/03/06 03:24:02;;;;;;;;;3.75;2.00;13.20;99.90;;;;;;5050770;28;11465;-54
2022/03/06 03:26:32;;;;;;;;;2.50;2.50;13.20;99.90;;;;;;5050554;28;11437;-54
2022/03/06 03:29:03;;;;;;;;;2.75;2.75;13.20;99.90;;;;;;5049208;28;11408;-55
2022/03/06 03:31:34;;;;;;;;;1.00;1.00;13.20;99.90;;;;;;5048800;28;11469;-55
2022/03/06 03:34:05;;;;;;;;;3.25;3.25;13.20;99.90;;;;;;5046766;28;11463;-57
2022/03/06 03:36:36;;;;;;;;;2.75;2.75;13.10;99.90;;;;;;5053653;28;11456;-58
2022/03/06 03:39:07;;;;;;;;;3.00;2.50;13.10;99.90;;;;;;5048746;28;11468;-57
2022/03/06 03:41:38;;;;;;;;;3.25;3.25;13.10;99.90;;;;;;5057175;28;11441;-57
2022/03/06 03:44:08;;;;;;;;;2.00;2.00;13.10;99.90;;;;;;5054196;28;12442;-56
2022/03/06 03:46:39;;;;;;;;;2.00;2.00;13.20;99.90;;;;;;5052807;28;11467;-57
2022/03/06 03:49:11;;;;;;;;;5.00;4.50;13.10;99.90;;;;;;5045067;28;11467;-55
2022/03/06 03:51:43;;;;;;;;;3.00;3.00;13.10;99.90;;;;;;5051527;28;12207;-54
2022/03/06 03:54:14;;;;;;;;;6.00;4.00;13.00;99.90;;;;;;5048645;28;11437;-57
2022/03/06 03:56:46;;;;;;;;;4.50;4.50;13.00;99.90;;;;;;5050528;28;11625;-54
2022/03/06 03:59:16;;;;;;;;;6.00;4.00;13.00;99.90;;;;;;5047343;28;12199;-55
2022/03/06 04:01:48;;;;;;;;;2.75;2.75;13.00;99.90;;;;;;5053846;28;11448;-56
2022/03/06 04:04:19;;;;;;;;;1.00;1.00;13.00;99.90;;;;;;5050444;28;12470;-58
2022/03/06 04:06:49;;;;;;;;;2.25;2.25;13.00;99.90;;;;;;5051784;28;11484;-54
2022/03/06 04:09:19;;;;;;;;;5.00;3.00;12.90;99.90;;;;;;5049062;28;12177;-55
2022/03/06 04:11:52;;;;;;;;;6.00;4.00;12.90;99.90;;;;;;5032500;28;11488;-55
2022/03/06 04:14:24;;;;;;;;;3.25;3.25;13.00;99.90;;;;;;5043693;28;11453;-57
2022/03/06 04:16:54;;;;;;;;;3.75;3.75;12.90;99.90;;;;;;5044607;28;11546;-53
2022/03/06 04:19:26;;;;;;;;;3.75;3.75;12.90;99.90;;;;;;5050725;28;11623;-56
2022/03/06 04:21:56;;;;;;;;;6.00;5.50;12.90;99.90;;;;;;5047504;28;11450;-58
2022/03/06 04:24:26;;;;;;;;;11.00;9.75;12.90;99.90;;;;;;5045450;28;11513;-54
2022/03/06 04:26:57;;;;;;;;;6.00;6.00;12.90;99.90;;;;;;5046860;28;11526;-53
2022/03/06 04:29:30;;;;;;;;;9.00;9.00;12.90;99.90;;;;;;5051021;28;11573;-56
2022/03/06 04:32:03;;;;;;;;;10.50;7.25;12.90;99.90;;;;;;5044130;28;11545;-56
2022/03/06 04:34:35;;;;;;;;;4.50;4.50;12.90;99.90;;;;;;5055157;28;11474;-54
2022/03/06 04:37:06;;;;;;;;;6.75;6.75;12.90;99.90;;;;;;5054246;28;12237;-54
2022/03/06 04:39:37;;;;;;;;;9.75;9.75;12.80;99.90;;;;;;5048443;28;11516;-55
2022/03/06 04:42:09;;;;;;;;;6.50;5.00;12.80;99.90;;;;;;5042048;28;11572;-54
2022/03/06 04:44:39;;;;;;;;;4.00;4.00;12.80;99.90;;;;;;5046153;28;11531;-57
2022/03/06 04:47:11;;;;;;;;;3.75;3.75;12.80;99.90;;;;;;5045862;28;11523;-57
2022/03/06 04:49:40;;;;;;;;;4.00;4.00;12.80;99.90;;;;;;5046346;28;11546;-57
2022/03/06 04:52:11;;;;;;;;;1.50;1.50;12.80;99.90;;;;;;5050474;28;11532;-58
2022/03/06 04:54:43;;;;;;;;;6.75;4.25;12.80;99.90;;;;;;5044926;28;11489;-55
2022/03/06 04:57:16;;;;;;;;;6.50;5.00;12.80;99.90;;;;;;5045600;28;11585;-55
2022/03/06 04:59:46;;;;;;;;;6.50;6.50;12.70;99.90;;;;;;5041485;28;11571;-58
2022/03/06 05:02:19;;;;;;;;;6.00;6.00;12.70;99.90;;;;;;5047273;28;11510;-54
2022/03/06 05:04:51;;;;;;;;;3.00;3.00;12.70;99.90;;;;;;5049396;28;11530;-57
2022/03/06 05:07:22;;;;;;;;;5.00;5.00;12.70;99.90;;;;;;5046805;28;11514;-58
2022/03/06 05:09:53;;;;;;;;;4.75;4.75;12.70;99.90;;;;;;5045101;28;11562;-54
2022/03/06 05:12:24;;;;;;;;;4.75;4.50;12.70;99.90;;;;;;5049762;28;12184;-56
2022/03/06 05:14:56;;;;;;;;;5.25;5.00;12.70;99.90;;;;;;5042573;28;11511;-56
2022/03/06 05:17:28;;;;;;;;;5.25;2.25;12.70;99.90;;;;;;5043755;28;11510;-56
2022/03/06 05:20:00;;;;;;;;;8.00;7.00;12.60;99.90;;;;;;5047414;28;11503;-56
2022/03/06 05:22:32;;;;;;;;;3.50;3.50;12.60;99.90;;;;;;5048630;28;12311;-64
2022/03/06 05:25:03;;;;;;;;;6.00;6.00;12.60;99.90;;;;;;5043352;28;11502;-55
2022/03/06 05:27:34;;;;;;;;;5.25;5.25;12.60;99.90;;;;;;5056675;28;11506;-55
2022/03/06 05:30:10;;;;;;;;;8.00;6.00;12.60;99.90;;;;;;5049551;28;11509;-56
2022/03/06 05:32:41;;;;;;;;;4.50;4.50;12.50;99.90;;;;;;5052720;28;11527;-54
2022/03/06 05:35:16;;;;;;;;;4.00;3.00;12.60;99.90;;;;;;5055072;28;11490;-57
2022/03/06 05:37:47;;;;;;;;;8.50;8.50;12.50;99.90;;;;;;5053868;28;11519;-56
2022/03/06 05:40:17;;;;;;;;;8.50;8.50;12.50;99.90;;;;;;5049688;28;11610;-55
2022/03/06 05:42:48;;;;;;;;;6.50;6.50;12.40;99.90;;;;;;5042096;28;11535;-55
2022/03/06 05:45:19;;;;;;;;;6.00;6.00;12.40;99.90;;;;;;5049050;28;11516;-57
2022/03/06 05:47:50;;;;;;;;;4.75;4.75;12.40;99.90;;;;;;5041672;28;11502;-57
2022/03/06 05:50:21;;;;;;;;;5.50;5.50;12.30;99.90;;;;;;5048466;28;11502;-57
2022/03/06 05:52:51;;;;;;;;;4.25;4.25;12.30;99.90;;;;;;5038389;28;12240;-56
2022/03/06 05:55:23;;;;;;;;;4.00;4.00;12.40;99.90;;;;;;5048488;28;12351;-55
2022/03/06 05:57:54;;;;;;;;;4.50;4.00;12.30;99.90;;;;;;5046754;28;11550;-56
2022/03/06 06:00:25;;;;;;;;;4.25;4.00;12.30;99.90;;;;;;5042912;28;11862;-56
2022/03/06 06:02:58;;;;;;;;;2.00;2.00;12.20;99.90;;;;;;5044266;28;11541;-56
2022/03/06 06:05:30;;;;;;;;;6.00;6.00;12.30;99.90;;;;;;5051990;28;12038;-55
2022/03/06 06:08:03;;;;;;;;;8.50;8.50;12.10;99.90;;;;;;5033818;28;11550;-54
2022/03/06 06:10:35;;;;;;;;;10.00;10.00;12.20;99.90;;;;;;5051984;28;11539;-55
2022/03/06 06:13:08;;;;;;;;;11.00;11.00;12.10;99.90;;;;;;5052987;28;11584;-55
2022/03/06 06:15:43;;;;;;;;;13.25;13.25;12.10;99.90;;;;;;5047529;28;11857;-56
2022/03/06 06:18:14;;;;;;;;;14.50;14.50;12.10;99.90;;;;;;5050746;28;11841;-58
2022/03/06 06:20:45;;;;;;;;;18.00;18.00;12.00;99.90;;;;;;5047756;28;11578;-56
2022/03/06 06:23:17;;;;;;;;;26.33;24.67;12.00;99.90;;;;;;5055736;28;11545;-57
2022/03/06 06:25:47;;;;;;;;;32.33;29.00;11.90;99.90;;;;;;5045829;28;8883;-55
2022/03/06 06:28:17;;;;;;;;;36.67;34.33;11.90;99.90;;;;;;5053242;28;8862;-56
2022/03/06 06:30:48;;;;;;;;;46.00;40.00;11.90;99.90;;;;;;5044497;28;8879;-55
2022/03/06 06:33:19;;;;;;;;;46.00;40.67;11.90;99.90;;;;;;5052084;28;8856;-57
2022/03/06 06:35:50;;;;;;;;;49.67;42.00;11.90;99.90;;;;;;5048664;28;8957;-56
2022/03/06 06:38:21;;;;;;;;;42.67;39.00;11.90;99.90;;;;;;5050065;28;8848;-56
2022/03/06 06:40:52;;;;;;;;;30.33;29.00;11.80;99.90;;;;;;5050862;28;8845;-57
2022/03/06 06:43:24;;;;;;;;;12.50;12.50;11.80;99.90;;;;;;5054778;28;8852;-57
2022/03/06 06:45:54;;;;;;;;;6.75;6.75;11.80;99.90;;;;;;5042926;28;11594;-56
2022/03/06 06:48:24;;;;;;;;;5.25;5.25;11.70;99.90;;;;;;5051026;28;11586;-56
2022/03/06 06:50:56;;;;;;;;;5.25;5.25;11.70;99.90;;;;;;5049203;28;11559;-55
2022/03/06 06:53:28;;;;;;;;;10.00;8.00;11.70;99.90;;;;;;5053006;28;11511;-57
2022/03/06 06:55:58;;;;;;;;;6.00;6.00;11.70;99.90;;;;;;5050738;28;12079;-57
2022/03/06 06:58:29;;;;;;;;;5.75;5.75;11.60;99.90;;;;;;5051221;28;11502;-54
2022/03/06 07:01:00;;;;;;;;;7.00;7.00;11.60;99.90;;;;;;5047776;28;11557;-56
2022/03/06 07:03:32;;;;;;;;;7.00;5.00;11.60;99.90;;;;;;5049845;28;11513;-55
2022/03/06 07:06:03;;;;;;;;;6.75;6.75;11.60;99.90;;;;;;5053412;28;11512;-56
2022/03/06 07:08:35;;;;;;;;;7.25;6.25;11.50;99.90;;;;;;5041042;28;11539;-57
2022/03/06 07:11:06;;;;;;;;;6.25;6.25;11.50;99.90;;;;;;5045478;28;11497;-55
2022/03/06 07:13:39;;;;;;;;;5.00;5.00;11.50;99.90;;;;;;5051608;28;11502;-56
2022/03/06 07:16:11;;;;;;;;;9.50;9.50;11.40;99.90;;;;;;5057295;28;11644;-56
2022/03/06 07:18:43;;;;;;;;;4.75;4.75;11.40;99.90;;;;;;5046160;28;13979;-55
2022/03/06 07:21:17;;;;;;;;;7.25;4.00;11.40;99.90;;;;;;5050390;28;11531;-57
2022/03/06 07:23:48;;;;;;;;;9.00;7.00;11.40;99.90;;;;;;5044827;28;11537;-56
2022/03/06 07:26:18;;;;;;;;;9.75;8.25;11.40;99.90;;;;;;5050634;28;11684;-57
2022/03/06 07:28:48;;;;;;;;;5.00;5.00;11.30;99.90;;;;;;5052044;28;11524;-57
2022/03/06 07:31:20;;;;;;;;;6.25;5.00;11.30;99.90;;;;;;5047376;28;11514;-57
2022/03/06 07:33:50;;;;;;;;;5.00;5.00;11.30;99.90;;;;;;5052827;28;12340;-55
2022/03/06 07:36:22;;;;;;;;;5.25;5.25;11.30;99.90;;;;;;5056018;28;10946;-57
2022/03/06 07:38:54;;;;;;;;;7.00;7.00;11.30;99.90;;;;;;5046920;28;11519;-55
2022/03/06 07:41:24;;;;;;;;;6.00;6.00;11.30;99.90;;;;;;5051622;28;12335;-56
2022/03/06 07:43:55;;;;;;;;;5.00;5.00;11.20;99.90;;;;;;5044611;28;11551;-57
2022/03/06 07:46:25;;;;;;;;;6.25;5.25;11.20;99.90;;;;;;5047104;28;11554;-56
2022/03/06 07:48:56;;;;;;;;;4.00;4.00;11.20;99.90;;;;;;5050252;28;12032;-56
2022/03/06 07:51:26;;;;;;;;;4.00;4.00;11.20;99.90;;;;;;5051820;28;11507;-58
2022/03/06 07:53:57;;;;;;;;;7.00;5.25;11.10;99.90;;;;;;5046345;28;11538;-57
2022/03/06 07:56:28;;;;;;;;;6.00;5.00;11.10;99.90;;;;;;5047945;28;11548;-56
2022/03/06 07:59:00;;;;;;;;;5.75;5.75;11.00;99.90;;;;;;4948106;28;2823060;-55
2022/03/06 08:01:31;;;;;;;;;6.00;6.00;11.00;99.90;;;;;;5046186;28;8898;-55
2022/03/06 08:04:02;;;;;;;;;8.25;7.25;11.00;99.90;;;;;;5048269;28;11546;-55
2022/03/06 08:06:33;;;;;;;;;6.00;6.00;11.00;99.90;;;;;;5054259;28;11476;-55
2022/03/06 08:09:04;;;;;;;;;5.50;5.50;11.00;99.90;;;;;;5046895;28;11482;-56
2022/03/06 08:11:35;;;;;;;;;4.75;4.75;11.00;99.90;;;;;;5046401;28;11513;-57
2022/03/06 08:14:05;;;;;;;;;5.25;5.25;10.90;99.90;;;;;;5044403;28;11499;-55
2022/03/06 08:16:36;;;;;;;;;5.50;5.50;10.90;99.90;;;;;;5053284;28;11531;-56
2022/03/06 08:19:07;;;;;;;;;9.25;7.25;10.90;99.90;;;;;;5046975;28;12313;-55
2022/03/06 08:21:39;;;;;;;;;6.25;5.50;10.90;99.90;;;;;;5060627;28;11993;-54
2022/03/06 08:24:09;;;;;;;;;2.50;2.00;10.90;99.90;;;;;;5048756;28;11517;-56
2022/03/06 08:26:41;;;;;;;;;9.50;6.25;10.80;99.90;;;;;;5050904;28;11509;-53
2022/03/06 08:29:12;;;;;;;;;4.00;4.00;10.80;99.90;;;;;;5046835;28;12287;-55
2022/03/06 08:31:43;;;;;;;;;6.00;6.00;10.80;99.90;;;;;;5049192;28;11493;-55
2022/03/06 08:34:17;;;;;;;;;4.00;4.00;10.80;99.90;;;;;;5053247;28;12235;-57
2022/03/06 08:36:47;;;;;;;;;5.00;3.00;10.70;99.90;;;;;;5049483;28;11484;-57
2022/03/06 08:39:17;;;;;;;;;4.25;4.25;10.70;99.90;;;;;;5051056;28;11477;-57
2022/03/06 08:41:48;;;;;;;;;5.25;5.25;10.70;99.90;;;;;;5043336;28;12282;-58
2022/03/06 08:44:18;;;;;;;;;6.00;6.00;10.70;99.90;;;;;;5045974;28;11523;-57
2022/03/06 08:46:49;;;;;;;;;3.25;3.25;10.70;99.90;;;;;;5048298;28;11490;-56
2022/03/06 08:49:19;;;;;;;;;5.50;5.50;10.60;99.90;;;;;;5046972;28;12282;-56
2022/03/06 08:51:52;;;;;;;;;7.75;7.75;10.60;99.90;;;;;;5055722;28;11481;-55
2022/03/06 08:54:22;;;;;;;;;4.00;4.00;10.60;99.90;;;;;;5042435;28;11519;-56
2022/03/06 08:56:53;;;;;;;;;5.75;5.75;10.60;99.90;;;;;;5048156;28;13797;-57
2022/03/06 08:59:25;;;;;;;;;1.25;1.25;10.60;99.90;;;;;;5046011;28;11523;-57
2022/03/06 09:01:58;;;;;;;;;4.00;4.00;10.60;99.90;;;;;;5042178;28;12875;-60
2022/03/06 09:04:33;;;;;;;;;8.50;8.25;10.50;99.90;;;;;;5048468;28;11522;-58
2022/03/06 09:07:04;;;;;;;;;4.00;4.00;10.50;99.90;;;;;;5047192;28;12447;-57
2022/03/06 09:09:36;;;;;;;;;7.25;7.25;10.40;99.90;;;;;;5040967;28;11524;-57
2022/03/06 09:12:07;;;;;;;;;9.25;9.25;10.50;99.90;;;;;;5047678;28;11470;-57
2022/03/06 09:14:36;;;;;;;;;8.00;7.00;10.40;99.90;;;;;;5041257;28;11535;-56
2022/03/06 09:17:09;;;;;;;;;9.50;6.00;10.40;99.90;;;;;;5043432;28;12293;-57
2022/03/06 09:19:39;;;;;;;;;5.25;5.25;10.40;99.90;;;;;;5050494;28;11510;-58
2022/03/06 09:22:11;;;;;;;;;5.25;4.25;10.40;99.90;;;;;;5043120;28;11539;-57
2022/03/06 09:24:41;;;;;;;;;8.50;6.50;10.40;99.90;;;;;;5066706;28;11538;-55
2022/03/06 09:27:15;;;;;;;;;6.00;6.00;10.30;99.90;;;;;;5045068;28;11571;-54
2022/03/06 09:29:45;;;;;;;;;10.50;9.00;10.30;99.90;;;;;;5050245;28;11495;-58
2022/03/06 09:32:16;;;;;;;;;6.50;4.75;10.30;99.90;;;;;;5050133;28;11574;-58
2022/03/06 09:34:47;;;;;;;;;10.00;5.75;10.30;99.90;;;;;;5050984;28;11577;-58
2022/03/06 09:37:18;;;;;;;;;7.25;7.25;10.20;99.90;;;;;;5052709;28;11510;-57
2022/03/06 09:39:49;;;;;;;;;4.50;4.50;10.20;99.90;;;;;;5053955;28;11528;-56
2022/03/06 09:42:24;;;;;;;;;3.50;3.50;10.20;99.90;;;;;;5046608;28;11530;-56
2022/03/06 09:44:54;;;;;;;;;6.00;5.00;10.10;99.90;;;;;;5048494;28;11543;-57
2022/03/06 09:47:25;;;;;;;;;4.50;4.50;10.10;99.90;;;;;;5047651;28;11504;-57
2022/03/06 09:49:56;;;;;;;;;10.25;8.50;10.10;99.90;;;;;;5047692;28;12358;-57
2022/03/06 09:52:25;;;;;;;;;7.50;6.00;10.10;99.90;;;;;;5047200;28;11542;-56
2022/03/06 09:54:57;;;;;;;;;4.00;4.00;10.10;99.90;;;;;;5047112;28;11508;-54
2022/03/06 09:57:28;;;;;;;;;9.00;6.00;10.10;99.90;;;;;;5047547;28;11504;-55
2022/03/06 09:59:58;;;;;;;;;7.00;6.00;10.10;99.90;;;;;;5044222;28;11525;-54
2022/03/06 10:02:30;;;;;;;;;6.00;6.00;10.10;99.90;;;;;;5051935;28;11509;-57
2022/03/06 10:05:01;;;;;;;;;8.25;8.00;10.00;99.90;;;;;;5067331;28;11669;-56
2022/03/06 10:07:31;;;;;;;;;8.75;7.00;10.10;99.90;;;;;;5048107;28;11531;-56
2022/03/06 10:10:02;;;;;;;;;10.50;8.50;10.10;99.90;;;;;;5049455;28;11550;-54
2022/03/06 10:12:33;;;;;;;;;4.50;4.50;10.00;99.90;;;;;;5050989;28;11485;-56
2022/03/06 10:15:06;;;;;;;;;3.25;3.25;10.10;99.90;;;;;;5041692;28;11540;-55
2022/03/06 10:17:37;;;;;;;;;3.25;3.25;10.10;99.90;;;;;;5046293;28;11532;-53
2022/03/06 10:20:09;;;;;;;;;4.25;4.25;10.00;99.90;;;;;;5025204;28;11531;-55
2022/03/06 10:22:41;;;;;;;;;5.00;5.00;10.00;99.90;;;;;;5048123;28;11540;-56
2022/03/06 10:25:21;;;;;;;;;4.75;4.75;10.00;99.90;;;;;;5040941;28;11508;-55
2022/03/06 10:27:57;;;;;;;;;5.50;5.50;10.00;99.90;;;;;;5049805;28;11511;-57
2022/03/06 10:30:39;;;;;;;;;7.00;5.00;10.00;99.90;;;;;;5046312;28;11546;-56
2022/03/06 10:33:21;;;;;;;;;4.25;3.50;9.90;99.90;;;;;;5049051;28;11516;-57
2022/03/06 10:35:53;;;;;;;;;5.00;5.00;9.90;99.90;;;;;;5044220;28;11522;-55
2022/03/06 10:38:27;;;;;;;;;5.00;5.00;9.80;99.90;;;;;;5049843;28;11543;-56
2022/03/06 10:41:18;;;;;;;;;7.50;7.50;9.90;99.90;;;;;;5043746;28;11479;-55
2022/03/06 10:43:49;;;;;;;;;6.50;5.75;9.80;99.90;;;;;;5049965;28;11553;-55
2022/03/06 10:46:22;;;;;;;;;5.00;5.00;9.80;99.90;;;;;;5042712;28;11516;-55
2022/03/06 10:49:02;;;;;;;;;5.00;4.00;9.80;99.90;;;;;;5051202;28;11494;-57
2022/03/06 10:51:38;;;;;;;;;4.00;2.75;9.80;99.90;;;;;;5047630;28;12262;-56
2022/03/06 10:54:08;;;;;;;;;3.00;3.00;9.80;99.90;;;;;;5049191;28;11498;-56
2022/03/06 10:56:39;;;;;;;;;3.75;3.75;9.80;99.90;;;;;;5046589;28;11504;-56
2022/03/06 10:59:09;;;;;;;;;4.25;4.25;9.80;99.90;;;;;;5044141;28;11536;-56
2022/03/06 11:01:41;;;;;;;;;4.00;4.00;9.80;99.90;;;;;;5046131;28;11556;-56
2022/03/06 11:04:15;;;;;;;;;3.50;3.50;9.70;99.90;;;;;;5048290;28;11497;-58
2022/03/06 11:06:48;;;;;;;;;4.50;4.00;9.70;99.90;;;;;;5047061;28;12248;-57
2022/03/06 11:09:20;;;;;;;;;5.00;5.00;9.70;99.90;;;;;;5052220;28;11519;-55
2022/03/06 11:11:51;;;;;;;;;3.50;3.50;9.70;99.90;;;;;;5052256;28;11531;-56
2022/03/06 11:14:22;;;;;;;;;4.50;4.50;9.70;99.90;;;;;;5048986;28;11513;-58
2022/03/06 11:16:51;;;;;;;;;5.50;5.50;9.70;99.90;;;;;;5043371;28;11545;-55
2022/03/06 11:19:23;;;;;;;;;4.00;4.00;9.70;99.90;;;;;;5051423;28;12297;-56
2022/03/06 11:22:20;;;;;;;;;4.75;4.75;9.60;99.90;;;;;;5049418;28;11504;-56
2022/03/06 11:24:56;;;;;;;;;5.00;3.00;9.60;99.90;;;;;;5041429;28;11524;-55
2022/03/06 11:27:47;;;;;;;;;3.75;3.75;9.50;99.90;;;;;;5046701;28;11510;-55
2022/03/06 11:30:22;;;;;;;;;5.00;5.00;9.50;99.90;;;;;;5042752;28;11691;-57
2022/03/06 11:33:08;;;;;;;;;4.75;4.75;9.50;99.90;;;;;;5048893;28;11539;-56
2022/03/06 11:35:41;;;;;;;;;5.25;4.00;9.50;99.90;;;;;;5046461;28;12247;-57
2022/03/06 11:38:20;;;;;;;;;3.00;3.00;9.50;99.90;;;;;;5055777;28;11504;-56
2022/03/06 11:40:55;;;;;;;;;7.25;7.25;9.50;99.90;;;;;;5048135;28;12340;-56
2022/03/06 11:43:44;;;;;;;;;5.00;5.00;9.50;99.90;;;;;;5053528;28;11529;-56
2022/03/06 11:46:25;;;;;;;;;3.00;3.00;9.50;99.90;;;;;;5044051;28;11526;-57
2022/03/06 11:48:57;;;;;;;;;6.25;6.25;9.50;99.90;;;;;;5051930;28;11530;-55
2022/03/06 11:51:30;;;;;;;;;6.25;6.25;9.50;99.90;;;;;;5050785;28;12296;-56
2022/03/06 11:54:07;;;;;;;;;5.00;5.00;9.50;99.90;;;;;;5050704;28;11523;-57
2022/03/06 11:56:41;;;;;;;;;3.50;3.50;9.50;99.90;;;;;;5050864;28;11504;-56
2022/03/06 11:59:19;;;;;;;;;5.50;5.50;9.50;99.90;;;;;;5048361;28;12250;-56
2022/03/06 12:02:05;;;;;;;;;5.25;5.25;9.40;99.90;;;;;;5046533;28;11514;-57
2022/03/06 12:04:40;;;;;;;;;3.00;3.00;9.40;99.90;;;;;;5049779;28;12160;-54
2022/03/06 12:07:12;;;;;;;;;4.25;4.25;9.40;99.90;;;;;;5048829;28;12224;-55
2022/03/06 12:09:46;;;;;;;;;3.50;3.50;9.40;99.90;;;;;;5052110;28;11554;-56
2022/03/06 12:12:19;;;;;;;;;7.50;7.00;9.40;99.90;;;;;;5047811;28;11774;-54
2022/03/06 12:14:53;;;;;;;;;6.75;6.75;9.40;99.90;;;;;;5044820;28;12347;-57
2022/03/06 12:17:24;;;;;;;;;4.25;4.25;9.40;99.90;;;;;;5053205;28;11512;-56
2022/03/06 12:19:56;;;;;;;;;5.00;5.00;9.40;99.90;;;;;;5050168;28;11599;-57
2022/03/06 12:22:35;;;;;;;;;6.00;6.00;9.40;99.90;;;;;;5051199;28;11511;-55
2022/03/06 12:25:08;;;;;;;;;5.50;4.00;9.40;99.90;;;;;;5051365;28;11547;-57
2022/03/06 12:27:44;;;;;;;;;5.00;5.00;9.40;99.90;;;;;;5050897;28;12269;-57
2022/03/06 12:30:24;;;;;;;;;5.00;5.00;9.30;99.90;;;;;;5053139;28;11561;-56
2022/03/06 12:32:56;;;;;;;;;7.00;5.75;9.20;99.90;;;;;;5051635;28;12244;-57
2022/03/06 12:35:27;;;;;;;;;7.75;7.75;9.20;99.90;;;;;;5053532;28;11494;-57
2022/03/06 12:38:00;;;;;;;;;5.25;5.25;9.20;99.90;;;;;;5053774;28;11485;-58
2022/03/06 12:40:33;;;;;;;;;6.00;5.50;9.10;99.90;;;;;;5050039;28;11506;-56
2022/03/06 12:43:07;;;;;;;;;6.25;6.25;9.10;99.90;;;;;;5057522;28;12205;-56
2022/03/06 12:45:37;;;;;;;;;9.50;7.50;9.10;99.90;;;;;;5047077;28;11796;-57
2022/03/06 12:48:07;;;;;;;;;5.25;5.25;9.10;99.90;;;;;;5047846;28;12379;-58
2022/03/06 12:50:42;;;;;;;;;7.25;7.25;9.10;99.90;;;;;;5050469;28;11559;-56
2022/03/06 12:53:17;;;;;;;;;7.00;4.00;9.10;99.90;;;;;;5054612;28;11509;-57
2022/03/06 12:56:00;;;;;;;;;8.00;6.50;9.10;99.90;;;;;;5046140;28;12249;-58
2022/03/06 12:58:42;;;;;;;;;4.00;4.00;9.10;99.90;;;;;;5048745;28;11571;-55
2022/03/06 13:01:12;;;;;;;;;6.50;3.75;9.00;99.90;;;;;;5043685;28;11531;-57
2022/03/06 13:03:50;;;;;;;;;2.00;2.00;9.00;99.90;;;;;;5052346;28;11541;-56
2022/03/06 13:06:21;;;;;;;;;4.75;4.75;9.00;99.90;;;;;;5047330;28;11498;-55
2022/03/06 13:08:51;;;;;;;;;5.00;4.00;9.00;99.90;;;;;;5052644;28;11535;-55
2022/03/06 13:11:22;;;;;;;;;7.25;5.75;9.00;99.90;;;;;;5051755;28;11514;-57
2022/03/06 13:14:05;;;;;;;;;5.00;3.75;9.00;99.90;;;;;;5051956;28;11579;-55